CFWAL CYYZ-KTEB
Flight info
| Callsign | CFWAL |
|---|---|
| Flight time | 1h 16m |
| Altitude | 27000 |
| Route | MAVAN3 BMPAH DCT AEVON DCT EXTOL DCT HNK V167 WEARD V489 COATE |
| Aircraft | PC12/L-SDFGRWY/S |
Departure
| Time | 2026-05-03 22:11 |
|---|---|
| Airport | Toronto Pearson International Airport (CYYZ) |
Arrival
| Time | 2026-05-03 23:27 |
|---|---|
| Airport | Teterboro Airport (KTEB) |
| Time | Latitude | Longitude | Altitude | Speed | Heading |
|---|---|---|---|---|---|
| 2026-05-03 21:54 | 43.68921 | -79.65135 | 557 ft | 0 kts | 230° |
| 2026-05-03 22:05 | 43.68920 | -79.65137 | 557 ft | 2 kts | 230° |
| 2026-05-03 22:05 | 43.68899 | -79.65131 | 562 ft | 7 kts | 133° |
| 2026-05-03 22:06 | 43.68917 | -79.65047 | 559 ft | 12 kts | 53° |
| 2026-05-03 22:06 | 43.68969 | -79.64958 | 557 ft | 10 kts | 49° |
| 2026-05-03 22:06 | 43.68995 | -79.64915 | 562 ft | 0 kts | 51° |
| 2026-05-03 22:06 | 43.69000 | -79.64907 | 561 ft | 4 kts | 51° |
| 2026-05-03 22:07 | 43.69001 | -79.64846 | 557 ft | 10 kts | 142° |
| 2026-05-03 22:07 | 43.68967 | -79.64772 | 568 ft | 10 kts | 54° |
| 2026-05-03 22:07 | 43.69022 | -79.64691 | 562 ft | 13 kts | 47° |
| 2026-05-03 22:07 | 43.69091 | -79.64591 | 564 ft | 16 kts | 46° |
| 2026-05-03 22:08 | 43.69142 | -79.64516 | 567 ft | 16 kts | 46° |
| 2026-05-03 22:08 | 43.69221 | -79.64403 | 569 ft | 18 kts | 45° |
| 2026-05-03 22:08 | 43.69307 | -79.64276 | 565 ft | 18 kts | 47° |
| 2026-05-03 22:08 | 43.69370 | -79.64125 | 564 ft | 20 kts | 71° |
| 2026-05-03 22:09 | 43.69326 | -79.63998 | 557 ft | 16 kts | 136° |
| 2026-05-03 22:09 | 43.69260 | -79.63914 | 559 ft | 0 kts | 139° |
| 2026-05-03 22:09 | 43.69239 | -79.63886 | 559 ft | 11 kts | 134° |
| 2026-05-03 22:10 | 43.69097 | -79.63968 | 563 ft | 19 kts | 227° |
| 2026-05-03 22:10 | 43.68902 | -79.64247 | 561 ft | 62 kts | 223° |
| 2026-05-03 22:10 | 43.68543 | -79.64738 | 696 ft | 81 kts | 234° |
| 2026-05-03 22:10 | 43.68124 | -79.65353 | 956 ft | 93 kts | 234° |
| 2026-05-03 22:11 | 43.67565 | -79.65856 | 1277 ft | 111 kts | 194° |
| 2026-05-03 22:11 | 43.66722 | -79.65573 | 1555 ft | 139 kts | 169° |
| 2026-05-03 22:11 | 43.65762 | -79.65135 | 2014 ft | 150 kts | 171° |
| 2026-05-03 22:11 | 43.64751 | -79.64655 | 2529 ft | 156 kts | 171° |
| 2026-05-03 22:12 | 43.63715 | -79.64130 | 3030 ft | 163 kts | 170° |
| 2026-05-03 22:12 | 43.62650 | -79.63564 | 3538 ft | 165 kts | 170° |
| 2026-05-03 22:12 | 43.61577 | -79.62983 | 4083 ft | 166 kts | 170° |
| 2026-05-03 22:12 | 43.60486 | -79.62382 | 4583 ft | 172 kts | 167° |
| 2026-05-03 22:13 | 43.59507 | -79.61291 | 5035 ft | 189 kts | 140° |
| 2026-05-03 22:13 | 43.58647 | -79.59903 | 5545 ft | 191 kts | 137° |
| 2026-05-03 22:13 | 43.57774 | -79.58519 | 6070 ft | 192 kts | 140° |
| 2026-05-03 22:13 | 43.56875 | -79.57147 | 6565 ft | 194 kts | 140° |
| 2026-05-03 22:14 | 43.55995 | -79.55716 | 7036 ft | 200 kts | 127° |
| 2026-05-03 22:14 | 43.55439 | -79.53937 | 7484 ft | 204 kts | 112° |
| 2026-05-03 22:14 | 43.54944 | -79.52092 | 7994 ft | 206 kts | 112° |
| 2026-05-03 22:14 | 43.54436 | -79.50239 | 8501 ft | 208 kts | 112° |
| 2026-05-03 22:15 | 43.53924 | -79.48371 | 9017 ft | 209 kts | 112° |
| 2026-05-03 22:15 | 43.53410 | -79.46488 | 9537 ft | 210 kts | 111° |
| 2026-05-03 22:15 | 43.52893 | -79.44598 | 10024 ft | 211 kts | 111° |
| 2026-05-03 22:15 | 43.52373 | -79.42696 | 10487 ft | 213 kts | 111° |
| 2026-05-03 22:16 | 43.51851 | -79.40789 | 10953 ft | 213 kts | 111° |
| 2026-05-03 22:16 | 43.51325 | -79.38870 | 11449 ft | 214 kts | 111° |
| 2026-05-03 22:16 | 43.50798 | -79.36950 | 11945 ft | 215 kts | 111° |
| 2026-05-03 22:16 | 43.50269 | -79.35021 | 12427 ft | 216 kts | 110° |
| 2026-05-03 22:17 | 43.49736 | -79.33080 | 12914 ft | 217 kts | 110° |
| 2026-05-03 22:17 | 43.49201 | -79.31135 | 13404 ft | 218 kts | 110° |
| 2026-05-03 22:17 | 43.48663 | -79.29178 | 13859 ft | 219 kts | 110° |
| 2026-05-03 22:17 | 43.48122 | -79.27214 | 14277 ft | 220 kts | 111° |
| 2026-05-03 22:18 | 43.47579 | -79.25244 | 14700 ft | 221 kts | 111° |
| 2026-05-03 22:18 | 43.47033 | -79.23264 | 15116 ft | 221 kts | 111° |
| 2026-05-03 22:18 | 43.46485 | -79.21277 | 15537 ft | 222 kts | 111° |
| 2026-05-03 22:18 | 43.45942 | -79.19310 | 15947 ft | 223 kts | 111° |
| 2026-05-03 22:19 | 43.45389 | -79.17309 | 16357 ft | 224 kts | 111° |
| 2026-05-03 22:19 | 43.44832 | -79.15297 | 16775 ft | 225 kts | 111° |
| 2026-05-03 22:19 | 43.44267 | -79.13254 | 17192 ft | 226 kts | 112° |
| 2026-05-03 22:19 | 43.43655 | -79.11287 | 17566 ft | 228 kts | 114° |
| 2026-05-03 22:20 | 43.43039 | -79.09273 | 17975 ft | 229 kts | 114° |
| 2026-05-03 22:20 | 43.42421 | -79.07252 | 18358 ft | 229 kts | 114° |
| 2026-05-03 22:20 | 43.41786 | -79.05203 | 18708 ft | 231 kts | 114° |
| 2026-05-03 22:20 | 43.41163 | -79.03199 | 19051 ft | 232 kts | 114° |
| 2026-05-03 22:21 | 43.40519 | -79.01128 | 19399 ft | 233 kts | 114° |
| 2026-05-03 22:21 | 43.39889 | -78.99097 | 19747 ft | 234 kts | 114° |
| 2026-05-03 22:21 | 43.39247 | -78.97034 | 20095 ft | 235 kts | 114° |
| 2026-05-03 22:21 | 43.38602 | -78.94961 | 20436 ft | 237 kts | 114° |
| 2026-05-03 22:22 | 43.37952 | -78.92874 | 20772 ft | 238 kts | 114° |
| 2026-05-03 22:22 | 43.37298 | -78.90776 | 21124 ft | 239 kts | 114° |
| 2026-05-03 22:22 | 43.36641 | -78.88671 | 21464 ft | 240 kts | 114° |
| 2026-05-03 22:22 | 43.35980 | -78.86554 | 21808 ft | 242 kts | 114° |
| 2026-05-03 22:23 | 43.35315 | -78.84425 | 22156 ft | 243 kts | 114° |
| 2026-05-03 22:23 | 43.34646 | -78.82286 | 22502 ft | 244 kts | 114° |
| 2026-05-03 22:23 | 43.33973 | -78.80135 | 22847 ft | 246 kts | 114° |
| 2026-05-03 22:23 | 43.33298 | -78.77978 | 23194 ft | 247 kts | 115° |
| 2026-05-03 22:24 | 43.32617 | -78.75806 | 23529 ft | 248 kts | 115° |
| 2026-05-03 22:24 | 43.31932 | -78.73624 | 23820 ft | 249 kts | 115° |
| 2026-05-03 22:24 | 43.31245 | -78.71435 | 24102 ft | 250 kts | 115° |
| 2026-05-03 22:24 | 43.30555 | -78.69239 | 24406 ft | 251 kts | 115° |
| 2026-05-03 22:25 | 43.29861 | -78.67034 | 24700 ft | 252 kts | 115° |
| 2026-05-03 22:25 | 43.29166 | -78.64823 | 25002 ft | 253 kts | 115° |
| 2026-05-03 22:25 | 43.28465 | -78.62600 | 25298 ft | 254 kts | 115° |
| 2026-05-03 22:25 | 43.27762 | -78.60370 | 25604 ft | 255 kts | 115° |
| 2026-05-03 22:26 | 43.27058 | -78.58140 | 25821 ft | 254 kts | 115° |
| 2026-05-03 22:26 | 43.26347 | -78.55894 | 25919 ft | 258 kts | 116° |
| 2026-05-03 22:26 | 43.25636 | -78.53642 | 26148 ft | 257 kts | 116° |
| 2026-05-03 22:26 | 43.24925 | -78.51390 | 26377 ft | 258 kts | 116° |
| 2026-05-03 22:27 | 43.24210 | -78.49132 | 26596 ft | 259 kts | 116° |
| 2026-05-03 22:27 | 43.23491 | -78.46864 | 26831 ft | 260 kts | 116° |
| 2026-05-03 22:27 | 43.22764 | -78.44573 | 26901 ft | 268 kts | 116° |
| 2026-05-03 22:27 | 43.22007 | -78.42197 | 26901 ft | 276 kts | 116° |
| 2026-05-03 22:28 | 43.21244 | -78.39794 | 26902 ft | 281 kts | 116° |
| 2026-05-03 22:28 | 43.20456 | -78.37315 | 26901 ft | 286 kts | 116° |
| 2026-05-03 22:28 | 43.19644 | -78.34764 | 26898 ft | 289 kts | 116° |
| 2026-05-03 22:28 | 43.18779 | -78.32316 | 26895 ft | 289 kts | 126° |
| 2026-05-03 22:29 | 43.17561 | -78.30142 | 26898 ft | 288 kts | 134° |
| 2026-05-03 22:29 | 43.16286 | -78.28015 | 26901 ft | 290 kts | 134° |
| 2026-05-03 22:29 | 43.15003 | -78.25863 | 26901 ft | 292 kts | 134° |
| 2026-05-03 22:29 | 43.13721 | -78.23707 | 26897 ft | 293 kts | 134° |
| 2026-05-03 22:30 | 43.12433 | -78.21547 | 26899 ft | 293 kts | 134° |
| 2026-05-03 22:30 | 43.11123 | -78.19355 | 26900 ft | 294 kts | 134° |
| 2026-05-03 22:30 | 43.09844 | -78.17217 | 26898 ft | 295 kts | 134° |
| 2026-05-03 22:30 | 43.08527 | -78.15014 | 26894 ft | 295 kts | 134° |
| 2026-05-03 22:31 | 43.07242 | -78.12867 | 26890 ft | 296 kts | 134° |
| 2026-05-03 22:31 | 43.05940 | -78.10691 | 26891 ft | 295 kts | 134° |
| 2026-05-03 22:31 | 43.04623 | -78.08494 | 26893 ft | 295 kts | 134° |
| 2026-05-03 22:31 | 43.03325 | -78.06330 | 26892 ft | 294 kts | 134° |
| 2026-05-03 22:32 | 43.02029 | -78.04171 | 26890 ft | 294 kts | 134° |
| 2026-05-03 22:32 | 43.00736 | -78.02018 | 26894 ft | 293 kts | 134° |
| 2026-05-03 22:32 | 42.99461 | -77.99897 | 26892 ft | 292 kts | 134° |
| 2026-05-03 22:32 | 42.98171 | -77.97754 | 26888 ft | 291 kts | 135° |
| 2026-05-03 22:33 | 42.96886 | -77.95618 | 26895 ft | 291 kts | 135° |
| 2026-05-03 22:33 | 42.95602 | -77.93487 | 26896 ft | 290 kts | 135° |
| 2026-05-03 22:33 | 42.94321 | -77.91363 | 26893 ft | 290 kts | 135° |
| 2026-05-03 22:33 | 42.93042 | -77.89242 | 26901 ft | 289 kts | 135° |
| 2026-05-03 22:34 | 42.91806 | -77.87082 | 26904 ft | 291 kts | 127° |
| 2026-05-03 22:34 | 42.90955 | -77.84547 | 26907 ft | 297 kts | 110° |
| 2026-05-03 22:34 | 42.90413 | -77.81841 | 26909 ft | 296 kts | 108° |
| 2026-05-03 22:34 | 42.89877 | -77.79124 | 26910 ft | 297 kts | 108° |
| 2026-05-03 22:35 | 42.89332 | -77.76405 | 26908 ft | 298 kts | 108° |
| 2026-05-03 22:35 | 42.88784 | -77.73679 | 26910 ft | 298 kts | 108° |
| 2026-05-03 22:35 | 42.88237 | -77.70948 | 26906 ft | 298 kts | 108° |
| 2026-05-03 22:35 | 42.87692 | -77.68221 | 26905 ft | 298 kts | 108° |
| 2026-05-03 22:36 | 42.87145 | -77.65498 | 26909 ft | 298 kts | 108° |
| 2026-05-03 22:36 | 42.86598 | -77.62783 | 26914 ft | 298 kts | 109° |
| 2026-05-03 22:36 | 42.86050 | -77.60062 | 26902 ft | 298 kts | 109° |
| 2026-05-03 22:36 | 42.85502 | -77.57341 | 26901 ft | 298 kts | 109° |
| 2026-05-03 22:37 | 42.84952 | -77.54618 | 26904 ft | 298 kts | 109° |
| 2026-05-03 22:37 | 42.84401 | -77.51894 | 26901 ft | 298 kts | 109° |
| 2026-05-03 22:37 | 42.83848 | -77.49166 | 26901 ft | 299 kts | 109° |
| 2026-05-03 22:37 | 42.83296 | -77.46439 | 26892 ft | 299 kts | 109° |
| 2026-05-03 22:38 | 42.82743 | -77.43713 | 26891 ft | 298 kts | 109° |
| 2026-05-03 22:38 | 42.82189 | -77.40991 | 26891 ft | 298 kts | 109° |
| 2026-05-03 22:38 | 42.81635 | -77.38268 | 26893 ft | 299 kts | 109° |
| 2026-05-03 22:38 | 42.81079 | -77.35545 | 26889 ft | 299 kts | 109° |
| 2026-05-03 22:39 | 42.80524 | -77.32820 | 26889 ft | 298 kts | 109° |
| 2026-05-03 22:39 | 42.79967 | -77.30098 | 26884 ft | 298 kts | 110° |
| 2026-05-03 22:39 | 42.79410 | -77.27377 | 26884 ft | 298 kts | 110° |
| 2026-05-03 22:39 | 42.78852 | -77.24655 | 26890 ft | 299 kts | 110° |
| 2026-05-03 22:40 | 42.78294 | -77.21933 | 26891 ft | 298 kts | 110° |
| 2026-05-03 22:40 | 42.77735 | -77.19214 | 26888 ft | 298 kts | 110° |
| 2026-05-03 22:40 | 42.77177 | -77.16501 | 26894 ft | 298 kts | 110° |
| 2026-05-03 22:40 | 42.76618 | -77.13786 | 26892 ft | 298 kts | 110° |
| 2026-05-03 22:41 | 42.76057 | -77.11069 | 26892 ft | 298 kts | 110° |
| 2026-05-03 22:41 | 42.75496 | -77.08352 | 26891 ft | 298 kts | 110° |
| 2026-05-03 22:41 | 42.74934 | -77.05634 | 26888 ft | 299 kts | 110° |
| 2026-05-03 22:41 | 42.74370 | -77.02912 | 26890 ft | 299 kts | 110° |
| 2026-05-03 22:42 | 42.73804 | -77.00185 | 26887 ft | 300 kts | 110° |
| 2026-05-03 22:42 | 42.73237 | -76.97452 | 26895 ft | 300 kts | 111° |
| 2026-05-03 22:42 | 42.72670 | -76.94725 | 26888 ft | 300 kts | 111° |
| 2026-05-03 22:42 | 42.72101 | -76.91994 | 26895 ft | 300 kts | 111° |
| 2026-05-03 22:43 | 42.71532 | -76.89262 | 26894 ft | 300 kts | 111° |
| 2026-05-03 22:43 | 42.70961 | -76.86527 | 26889 ft | 301 kts | 111° |
| 2026-05-03 22:43 | 42.70389 | -76.83791 | 26899 ft | 301 kts | 111° |
| 2026-05-03 22:43 | 42.69816 | -76.81053 | 26896 ft | 301 kts | 111° |
| 2026-05-03 22:44 | 42.69243 | -76.78319 | 26896 ft | 301 kts | 112° |
| 2026-05-03 22:44 | 42.68668 | -76.75580 | 26906 ft | 301 kts | 112° |
| 2026-05-03 22:44 | 42.68288 | -76.73773 | 26906 ft | 301 kts | 112° |
| 2026-05-03 22:44 | 42.67518 | -76.70114 | 26906 ft | 301 kts | 112° |
| 2026-05-03 22:45 | 42.66942 | -76.67376 | 26906 ft | 301 kts | 112° |
| 2026-05-03 22:45 | 42.66364 | -76.64637 | 26907 ft | 302 kts | 112° |
| 2026-05-03 22:45 | 42.65731 | -76.61933 | 26906 ft | 296 kts | 121° |
| 2026-05-03 22:45 | 42.64748 | -76.59526 | 26907 ft | 290 kts | 130° |
| 2026-05-03 22:46 | 42.63693 | -76.57190 | 26904 ft | 290 kts | 130° |
| 2026-05-03 22:46 | 42.62656 | -76.54874 | 26902 ft | 290 kts | 130° |
| 2026-05-03 22:46 | 42.61611 | -76.52532 | 26903 ft | 290 kts | 130° |
| 2026-05-03 22:46 | 42.60562 | -76.50192 | 26902 ft | 290 kts | 131° |
| 2026-05-03 22:47 | 42.59511 | -76.47854 | 26897 ft | 291 kts | 131° |
| 2026-05-03 22:47 | 42.58457 | -76.45507 | 26899 ft | 291 kts | 131° |
| 2026-05-03 22:47 | 42.57405 | -76.43167 | 26896 ft | 291 kts | 131° |
| 2026-05-03 22:47 | 42.56353 | -76.40826 | 26897 ft | 291 kts | 131° |
| 2026-05-03 22:48 | 42.55297 | -76.38480 | 26897 ft | 291 kts | 131° |
| 2026-05-03 22:48 | 42.54244 | -76.36141 | 26899 ft | 290 kts | 132° |
| 2026-05-03 22:48 | 42.53191 | -76.33805 | 26896 ft | 290 kts | 132° |
| 2026-05-03 22:48 | 42.52139 | -76.31474 | 26898 ft | 290 kts | 132° |
| 2026-05-03 22:49 | 42.51084 | -76.29139 | 26902 ft | 291 kts | 132° |
| 2026-05-03 22:49 | 42.50029 | -76.26803 | 26903 ft | 290 kts | 133° |
| 2026-05-03 22:49 | 42.48971 | -76.24464 | 26905 ft | 290 kts | 133° |
| 2026-05-03 22:49 | 42.47917 | -76.22134 | 26904 ft | 290 kts | 133° |
| 2026-05-03 22:50 | 42.46860 | -76.19803 | 26904 ft | 290 kts | 133° |
| 2026-05-03 22:50 | 42.45806 | -76.17475 | 26906 ft | 290 kts | 133° |
| 2026-05-03 22:50 | 42.44751 | -76.15152 | 26906 ft | 290 kts | 133° |
| 2026-05-03 22:50 | 42.43696 | -76.12828 | 26909 ft | 290 kts | 133° |
| 2026-05-03 22:51 | 42.42642 | -76.10508 | 26910 ft | 289 kts | 134° |
| 2026-05-03 22:51 | 42.41588 | -76.08189 | 26907 ft | 289 kts | 134° |
| 2026-05-03 22:51 | 42.40535 | -76.05876 | 26903 ft | 288 kts | 134° |
| 2026-05-03 22:51 | 42.39485 | -76.03572 | 26906 ft | 288 kts | 134° |
| 2026-05-03 22:52 | 42.38431 | -76.01262 | 26902 ft | 289 kts | 134° |
| 2026-05-03 22:52 | 42.37377 | -75.98950 | 26904 ft | 289 kts | 135° |
| 2026-05-03 22:52 | 42.36322 | -75.96639 | 26903 ft | 289 kts | 135° |
| 2026-05-03 22:52 | 42.35621 | -75.95104 | 26902 ft | 289 kts | 135° |
| 2026-05-03 22:53 | 42.34563 | -75.92789 | 26904 ft | 289 kts | 135° |
| 2026-05-03 22:53 | 42.33505 | -75.90477 | 26900 ft | 290 kts | 135° |
| 2026-05-03 22:53 | 42.32445 | -75.88162 | 26898 ft | 290 kts | 135° |
| 2026-05-03 22:53 | 42.31383 | -75.85845 | 26902 ft | 290 kts | 135° |
| 2026-05-03 22:54 | 42.30323 | -75.83531 | 26903 ft | 290 kts | 135° |
| 2026-05-03 22:54 | 42.29262 | -75.81217 | 26901 ft | 289 kts | 135° |
| 2026-05-03 22:54 | 42.28203 | -75.78911 | 26904 ft | 289 kts | 136° |
| 2026-05-03 22:54 | 42.27142 | -75.76605 | 26905 ft | 288 kts | 136° |
| 2026-05-03 22:55 | 42.26084 | -75.74304 | 26914 ft | 288 kts | 136° |
| 2026-05-03 22:55 | 42.25026 | -75.72007 | 26902 ft | 289 kts | 136° |
| 2026-05-03 22:55 | 42.23967 | -75.69706 | 26912 ft | 289 kts | 136° |
| 2026-05-03 22:55 | 42.22905 | -75.67402 | 26906 ft | 288 kts | 136° |
| 2026-05-03 22:56 | 42.21847 | -75.65110 | 26907 ft | 288 kts | 136° |
| 2026-05-03 22:56 | 42.20788 | -75.62816 | 26913 ft | 288 kts | 137° |
| 2026-05-03 22:56 | 42.19732 | -75.60529 | 26911 ft | 287 kts | 137° |
| 2026-05-03 22:56 | 42.18674 | -75.58242 | 26910 ft | 287 kts | 137° |
| 2026-05-03 22:57 | 42.17618 | -75.55960 | 26912 ft | 286 kts | 137° |
| 2026-05-03 22:57 | 42.16567 | -75.53689 | 26916 ft | 286 kts | 137° |
| 2026-05-03 22:57 | 42.15514 | -75.51417 | 26914 ft | 285 kts | 138° |
| 2026-05-03 22:57 | 42.14462 | -75.49152 | 26917 ft | 286 kts | 137° |
| 2026-05-03 22:58 | 42.13404 | -75.46876 | 26917 ft | 287 kts | 137° |
| 2026-05-03 22:58 | 42.12349 | -75.44601 | 26919 ft | 287 kts | 138° |
| 2026-05-03 22:58 | 42.11291 | -75.42325 | 26923 ft | 286 kts | 138° |
| 2026-05-03 22:58 | 42.10234 | -75.40053 | 26917 ft | 287 kts | 138° |
| 2026-05-03 22:59 | 42.09177 | -75.37781 | 26923 ft | 286 kts | 138° |
| 2026-05-03 22:59 | 42.08121 | -75.35515 | 26918 ft | 286 kts | 139° |
| 2026-05-03 22:59 | 42.07065 | -75.33251 | 26918 ft | 285 kts | 139° |
| 2026-05-03 22:59 | 42.06042 | -75.30949 | 26913 ft | 291 kts | 133° |
| 2026-05-03 23:00 | 42.05131 | -75.28502 | 26918 ft | 293 kts | 132° |
| 2026-05-03 23:00 | 42.04222 | -75.26055 | 26920 ft | 292 kts | 133° |
| 2026-05-03 23:00 | 42.03305 | -75.23622 | 26918 ft | 292 kts | 133° |
| 2026-05-03 23:00 | 42.02383 | -75.21187 | 26916 ft | 293 kts | 133° |
| 2026-05-03 23:01 | 42.01463 | -75.18744 | 26901 ft | 293 kts | 133° |
| 2026-05-03 23:01 | 42.00514 | -75.16249 | 26443 ft | 307 kts | 132° |
| 2026-05-03 23:01 | 41.99522 | -75.13645 | 25992 ft | 315 kts | 131° |
| 2026-05-03 23:01 | 41.98562 | -75.11059 | 25547 ft | 311 kts | 131° |
| 2026-05-03 23:02 | 41.97589 | -75.08457 | 25102 ft | 306 kts | 131° |
| 2026-05-03 23:02 | 41.96631 | -75.05932 | 24656 ft | 300 kts | 131° |
| 2026-05-03 23:02 | 41.95694 | -75.03474 | 24235 ft | 299 kts | 131° |
| 2026-05-03 23:02 | 41.94743 | -75.00975 | 23814 ft | 301 kts | 130° |
| 2026-05-03 23:03 | 41.93796 | -74.98471 | 23371 ft | 301 kts | 130° |
| 2026-05-03 23:03 | 41.92848 | -74.95968 | 22881 ft | 301 kts | 129° |
| 2026-05-03 23:03 | 41.91899 | -74.93471 | 22392 ft | 300 kts | 129° |
| 2026-05-03 23:03 | 41.90950 | -74.90977 | 21907 ft | 299 kts | 129° |
| 2026-05-03 23:04 | 41.90008 | -74.88500 | 21432 ft | 298 kts | 128° |
| 2026-05-03 23:04 | 41.89069 | -74.86033 | 20967 ft | 296 kts | 128° |
| 2026-05-03 23:04 | 41.88132 | -74.83576 | 20506 ft | 296 kts | 128° |
| 2026-05-03 23:04 | 41.87188 | -74.81107 | 20048 ft | 299 kts | 127° |
| 2026-05-03 23:05 | 41.86233 | -74.78610 | 19609 ft | 303 kts | 127° |
| 2026-05-03 23:05 | 41.85268 | -74.76084 | 19172 ft | 305 kts | 126° |
| 2026-05-03 23:05 | 41.84299 | -74.73545 | 18739 ft | 306 kts | 126° |
| 2026-05-03 23:05 | 41.83327 | -74.71003 | 18312 ft | 306 kts | 126° |
| 2026-05-03 23:06 | 41.82354 | -74.68465 | 17836 ft | 306 kts | 125° |
| 2026-05-03 23:06 | 41.81384 | -74.65937 | 17346 ft | 305 kts | 125° |
| 2026-05-03 23:06 | 41.80417 | -74.63418 | 16875 ft | 303 kts | 124° |
| 2026-05-03 23:06 | 41.79455 | -74.60914 | 16383 ft | 303 kts | 124° |
| 2026-05-03 23:07 | 41.78432 | -74.58426 | 15925 ft | 303 kts | 131° |
| 2026-05-03 23:07 | 41.77053 | -74.56345 | 15461 ft | 296 kts | 146° |
| 2026-05-03 23:07 | 41.75385 | -74.54806 | 15004 ft | 287 kts | 160° |
| 2026-05-03 23:07 | 41.73563 | -74.53864 | 14548 ft | 276 kts | 173° |
| 2026-05-03 23:08 | 41.71694 | -74.53508 | 14117 ft | 267 kts | 185° |
| 2026-05-03 23:08 | 41.69867 | -74.53688 | 13675 ft | 261 kts | 194° |
| 2026-05-03 23:08 | 41.68074 | -74.54044 | 13183 ft | 261 kts | 194° |
| 2026-05-03 23:08 | 41.66277 | -74.54385 | 12702 ft | 260 kts | 193° |
| 2026-05-03 23:09 | 41.64491 | -74.54718 | 12229 ft | 258 kts | 193° |
| 2026-05-03 23:09 | 41.62722 | -74.55052 | 11776 ft | 255 kts | 193° |
| 2026-05-03 23:09 | 41.60970 | -74.55385 | 11338 ft | 253 kts | 193° |
| 2026-05-03 23:09 | 41.59236 | -74.55713 | 10983 ft | 252 kts | 192° |
| 2026-05-03 23:10 | 41.57505 | -74.56039 | 10633 ft | 251 kts | 192° |
| 2026-05-03 23:10 | 41.55775 | -74.56366 | 10282 ft | 251 kts | 192° |
| 2026-05-03 23:10 | 41.54045 | -74.56693 | 9939 ft | 251 kts | 192° |
| 2026-05-03 23:10 | 41.52313 | -74.57019 | 9571 ft | 250 kts | 191° |
| 2026-05-03 23:11 | 41.50597 | -74.57343 | 9191 ft | 248 kts | 191° |
| 2026-05-03 23:11 | 41.48897 | -74.57663 | 8808 ft | 246 kts | 191° |
| 2026-05-03 23:11 | 41.47208 | -74.57981 | 8442 ft | 245 kts | 191° |
| 2026-05-03 23:11 | 41.45520 | -74.58299 | 8075 ft | 245 kts | 191° |
| 2026-05-03 23:12 | 41.43826 | -74.58618 | 7708 ft | 246 kts | 191° |
| 2026-05-03 23:12 | 41.42138 | -74.58936 | 7448 ft | 244 kts | 191° |
| 2026-05-03 23:12 | 41.40480 | -74.59326 | 7193 ft | 240 kts | 198° |
| 2026-05-03 23:12 | 41.38876 | -74.59933 | 6936 ft | 241 kts | 200° |
| 2026-05-03 23:13 | 41.37252 | -74.60568 | 6687 ft | 245 kts | 199° |
| 2026-05-03 23:13 | 41.35602 | -74.61199 | 6437 ft | 248 kts | 199° |
| 2026-05-03 23:13 | 41.33901 | -74.61589 | 6176 ft | 253 kts | 180° |
| 2026-05-03 23:13 | 41.32237 | -74.60844 | 6021 ft | 255 kts | 147° |
| 2026-05-03 23:14 | 41.31113 | -74.59126 | 6020 ft | 249 kts | 118° |
| 2026-05-03 23:14 | 41.30377 | -74.57030 | 6026 ft | 247 kts | 115° |
| 2026-05-03 23:14 | 41.29556 | -74.55062 | 6020 ft | 247 kts | 122° |
| 2026-05-03 23:14 | 41.28589 | -74.53166 | 6018 ft | 248 kts | 125° |
| 2026-05-03 23:15 | 41.27606 | -74.51272 | 6025 ft | 249 kts | 124° |
| 2026-05-03 23:15 | 41.26654 | -74.49349 | 6018 ft | 249 kts | 123° |
| 2026-05-03 23:15 | 41.25712 | -74.47422 | 6022 ft | 248 kts | 123° |
| 2026-05-03 23:15 | 41.24763 | -74.45502 | 6020 ft | 248 kts | 123° |
| 2026-05-03 23:16 | 41.23812 | -74.43587 | 6019 ft | 248 kts | 123° |
| 2026-05-03 23:16 | 41.22862 | -74.41676 | 6014 ft | 248 kts | 123° |
| 2026-05-03 23:16 | 41.21911 | -74.39760 | 5897 ft | 247 kts | 123° |
| 2026-05-03 23:16 | 41.20971 | -74.37870 | 5745 ft | 245 kts | 123° |
| 2026-05-03 23:17 | 41.20029 | -74.35973 | 5573 ft | 246 kts | 123° |
| 2026-05-03 23:17 | 41.19085 | -74.34072 | 5404 ft | 247 kts | 123° |
| 2026-05-03 23:17 | 41.18141 | -74.32172 | 5227 ft | 246 kts | 122° |
| 2026-05-03 23:17 | 41.17301 | -74.30206 | 5042 ft | 244 kts | 118° |
| 2026-05-03 23:18 | 41.16471 | -74.28245 | 4857 ft | 242 kts | 119° |
| 2026-05-03 23:18 | 41.15641 | -74.26307 | 4668 ft | 241 kts | 119° |
| 2026-05-03 23:18 | 41.14819 | -74.24377 | 4479 ft | 239 kts | 118° |
| 2026-05-03 23:18 | 41.14005 | -74.22460 | 4305 ft | 239 kts | 118° |
| 2026-05-03 23:19 | 41.13191 | -74.20546 | 4112 ft | 238 kts | 118° |
| 2026-05-03 23:19 | 41.12380 | -74.18641 | 3938 ft | 238 kts | 119° |
| 2026-05-03 23:19 | 41.11567 | -74.16735 | 3757 ft | 237 kts | 118° |
| 2026-05-03 23:19 | 41.10756 | -74.14833 | 3592 ft | 238 kts | 119° |
| 2026-05-03 23:20 | 41.09905 | -74.12940 | 3393 ft | 238 kts | 125° |
| 2026-05-03 23:20 | 41.08894 | -74.11213 | 3212 ft | 237 kts | 128° |
| 2026-05-03 23:20 | 41.07874 | -74.09507 | 3024 ft | 236 kts | 128° |
| 2026-05-03 23:20 | 41.06862 | -74.07798 | 2846 ft | 236 kts | 128° |
| 2026-05-03 23:21 | 41.05854 | -74.06085 | 2678 ft | 236 kts | 128° |
| 2026-05-03 23:21 | 41.04839 | -74.04366 | 2490 ft | 236 kts | 128° |
| 2026-05-03 23:21 | 41.03828 | -74.02659 | 2315 ft | 236 kts | 128° |
| 2026-05-03 23:21 | 41.02817 | -74.00952 | 2124 ft | 234 kts | 128° |
| 2026-05-03 23:22 | 41.00841 | -73.97614 | 2007 ft | 228 kts | 128° |
| 2026-05-03 23:22 | 40.99717 | -73.96233 | 1989 ft | 220 kts | 148° |
| 2026-05-03 23:22 | 40.98354 | -73.95426 | 1996 ft | 210 kts | 167° |
| 2026-05-03 23:23 | 40.96932 | -73.95216 | 2009 ft | 205 kts | 185° |
| 2026-05-03 23:23 | 40.95546 | -73.95566 | 1995 ft | 200 kts | 202° |
| 2026-05-03 23:23 | 40.94322 | -73.96395 | 2006 ft | 197 kts | 215° |
| 2026-05-03 23:23 | 40.93159 | -73.97343 | 1991 ft | 194 kts | 214° |
| 2026-05-03 23:24 | 40.92017 | -73.98265 | 1767 ft | 192 kts | 216° |
| 2026-05-03 23:24 | 40.91015 | -73.99325 | 1490 ft | 176 kts | 224° |
| 2026-05-03 23:24 | 40.90126 | -74.00347 | 1242 ft | 163 kts | 224° |
| 2026-05-03 23:24 | 40.89337 | -74.01250 | 1012 ft | 137 kts | 224° |
| 2026-05-03 23:25 | 40.88672 | -74.02005 | 827 ft | 116 kts | 226° |
| 2026-05-03 23:25 | 40.88122 | -74.02626 | 681 ft | 93 kts | 229° |
| 2026-05-03 23:25 | 40.87546 | -74.03101 | 638 ft | 100 kts | 218° |
| 2026-05-03 23:25 | 40.86990 | -74.03677 | 575 ft | 102 kts | 231° |
| 2026-05-03 23:26 | 40.86484 | -74.04358 | 337 ft | 103 kts | 240° |
| 2026-05-03 23:26 | 40.86020 | -74.05043 | 115 ft | 96 kts | 234° |
| 2026-05-03 23:26 | 40.85614 | -74.05649 | 15 ft | 82 kts | 236° |
| 2026-05-03 23:26 | 40.85288 | -74.06139 | 12 ft | 57 kts | 228° |
| 2026-05-03 23:27 | 40.85183 | -74.06354 | 12 ft | 18 kts | 301° |
| 2026-05-03 23:27 | 40.85255 | -74.06395 | 12 ft | 14 kts | 41° |
| 2026-05-03 23:27 | 40.85319 | -74.06303 | 12 ft | 15 kts | 47° |
| 2026-05-03 23:27 | 40.85388 | -74.06201 | 11 ft | 15 kts | 49° |
| 2026-05-03 23:28 | 40.85463 | -74.06091 | 11 ft | 17 kts | 50° |
| 2026-05-03 23:28 | 40.85522 | -74.06063 | 11 ft | 13 kts | 2° |
| 2026-05-03 23:28 | 40.85639 | -74.06054 | 11 ft | 12 kts | 3° |
| 2026-05-03 23:28 | 40.85716 | -74.06049 | 11 ft | 11 kts | 2° |
| 2026-05-03 23:29 | 40.85785 | -74.06026 | 11 ft | 11 kts | 32° |
| 2026-05-03 23:29 | 40.85852 | -74.06009 | 11 ft | 7 kts | 1° |
| 2026-05-03 23:29 | 40.85893 | -74.06029 | 11 ft | 6 kts | 291° |
| 2026-05-03 23:29 | 40.85880 | -74.06083 | 11 ft | 9 kts | 185° |
| 2026-05-03 23:30 | 40.85864 | -74.06047 | 11 ft | 0 kts | 91° |